Terminal Aerodrome Forecast
Issued by NWS Pocatello, ID

Home | Current Version | Previous Version | Text Only | Print | Product List | Glossary On
Versions: 1 2 3 4 5 6 7 8 9 10 11 12 13 14 15
000
FTUS45 KPIH 280300 AAA
TAFPIH
TAF AMD
KPIH 280304Z 2803/2824 17015G25KT P6SM OVC040
     FM280500 19014G25KT 5SM -SN BKN020 OVC050
     FM281300 22015KT 1SM -SN OVC008
     FM281700 23017G27KT 1SM -SN BLSN OVC005=

USA.gov is the U.S. government's official web portal to all federal, state and local government web resources and services.